Time;durP1;ratioP1;P1;durP2;ratioP2;P2;SDS_P1;SDS_P2;PMS_P1;PMS_P2;Temp;Humidity;BMP_temperature;BMP_pressure;BME280_temperature;BME280_humidity;BME280_pressure;Samples;Min_cycle;Max_cycle;Signal;HPM_P1;HPM_P2
2023/08/29 00:01:12;;;;;;;3.08;1.60;;;;;;;16.13;61.43;100012.00;4983569;28;20344;-54
2023/08/29 00:03:39;;;;;;;4.60;1.75;;;;;;;16.12;61.21;100010.28;4979297;28;20065;-50
2023/08/29 00:06:06;;;;;;;6.47;1.60;;;;;;;16.12;61.42;100015.53;4980520;28;20138;-47
2023/08/29 00:08:33;;;;;;;3.45;1.92;;;;;;;16.10;61.27;100012.06;4981014;28;20042;-49
2023/08/29 00:11:02;;;;;;;4.18;1.40;;;;;;;16.09;61.19;100005.16;4977118;28;20141;-50
2023/08/29 00:13:30;;;;;;;2.28;1.48;;;;;;;16.04;61.33;100007.00;4977467;28;20050;-47
2023/08/29 00:15:57;;;;;;;5.05;0.98;;;;;;;16.03;61.66;100010.53;4978968;28;20062;-47
2023/08/29 00:18:24;;;;;;;3.35;1.20;;;;;;;16.00;62.08;100002.75;4979361;28;20046;-50
2023/08/29 00:20:51;;;;;;;3.00;0.82;;;;;;;16.01;61.42;99996.66;4977964;28;20057;-45
2023/08/29 00:23:18;;;;;;;3.13;1.17;;;;;;;16.00;61.87;100000.16;4981238;28;20184;-47
2023/08/29 00:25:46;;;;;;;2.22;0.98;;;;;;;15.99;61.41;100001.06;4978517;28;20069;-50
2023/08/29 00:28:13;;;;;;;2.17;1.13;;;;;;;15.98;61.80;99994.13;4978228;28;20046;-50
2023/08/29 00:30:40;;;;;;;5.07;1.25;;;;;;;15.97;61.62;99995.88;4982064;28;20050;-50
2023/08/29 00:33:11;;;;;;;2.20;1.08;;;;;;;15.96;62.20;99994.16;4985662;28;20054;-48
2023/08/29 00:35:38;;;;;;;2.85;0.95;;;;;;;15.97;62.36;99989.81;4984594;28;20058;-47
2023/08/29 00:38:05;;;;;;;2.67;0.85;;;;;;;15.97;61.99;99985.41;4983057;28;20057;-47
2023/08/29 00:40:32;;;;;;;1.73;0.60;;;;;;;15.97;61.27;99989.81;4990747;28;20100;-47
2023/08/29 00:43:00;;;;;;;1.33;0.60;;;;;;;15.96;61.74;99985.44;4993654;28;20064;-47
2023/08/29 00:45:31;;;;;;;2.40;1.27;;;;;;;15.95;61.98;99992.44;4989931;28;20042;-48
2023/08/29 00:48:00;;;;;;;2.22;0.80;;;;;;;15.92;61.97;99988.13;4991013;28;20049;-51
2023/08/29 00:50:27;;;;;;;3.88;1.15;;;;;;;15.91;62.28;99985.56;4988460;28;20537;-49
2023/08/29 00:52:58;;;;;;;6.82;1.13;;;;;;;15.92;61.82;99987.28;4985618;28;20054;-47
2023/08/29 00:55:26;;;;;;;2.55;1.02;;;;;;;15.91;62.10;99981.19;4989673;28;20046;-47
2023/08/29 00:57:57;;;;;;;1.80;0.70;;;;;;;15.90;62.02;99984.69;4991362;28;20121;-45
2023/08/29 01:00:25;;;;;;;3.25;1.42;;;;;;;15.89;61.88;99977.75;4989594;28;20049;-45
2023/08/29 01:02:51;;;;;;;2.75;0.93;;;;;;;15.89;62.75;99983.00;4988746;28;20085;-47
2023/08/29 01:05:20;;;;;;;2.83;0.55;;;;;;;15.89;62.31;99983.00;4989288;28;20154;-50
2023/08/29 01:07:49;;;;;;;3.22;0.93;;;;;;;15.89;62.52;99980.38;4983470;28;20396;-48
2023/08/29 01:10:17;;;;;;;2.65;0.82;;;;;;;15.88;62.23;99976.03;4986842;28;20046;-48
2023/08/29 01:12:58;;;;;;;2.05;1.17;;;;;;;15.86;62.10;99972.63;4984638;28;20058;-47
2023/08/29 01:15:29;;;;;;;2.35;0.85;;;;;;;15.86;62.47;99972.63;4990122;28;20392;-48
2023/08/29 01:18:00;;;;;;;2.40;1.08;;;;;;;15.84;62.58;99973.56;4992709;28;20107;-47
2023/08/29 01:20:29;;;;;;;3.47;1.25;;;;;;;15.81;62.44;99974.50;4991121;28;20057;-46
2023/08/29 01:25:55;;;;;;;2.08;1.88;;;;;;;15.77;62.15;99983.31;5052891;28;20406;-49
2023/08/29 01:28:22;;;;;;;3.45;2.20;;;;;;;15.80;62.52;99973.63;5062226;28;20052;-52
2023/08/29 01:30:49;;;;;;;2.38;1.60;;;;;;;15.81;61.89;99979.72;5050400;28;20056;-46
2023/08/29 01:33:16;;;;;;;3.10;1.80;;;;;;;15.81;62.05;99974.50;5061902;28;20052;-49
2023/08/29 01:35:46;;;;;;;3.60;2.22;;;;;;;15.81;62.28;99969.28;5058523;28;20677;-47
2023/08/29 01:38:17;;;;;;;2.50;2.22;;;;;;;15.80;62.53;99967.53;5056761;28;20058;-48
2023/08/29 01:40:45;;;;;;;2.90;1.90;;;;;;;15.80;62.44;99962.31;5051250;28;20064;-47
2023/08/29 01:43:11;;;;;;;3.38;2.05;;;;;;;15.80;62.50;99959.69;5051549;28;20045;-45
2023/08/29 01:45:38;;;;;;;4.07;2.80;;;;;;;15.80;62.36;99957.09;5058159;28;20049;-49
2023/08/29 01:48:05;;;;;;;3.45;2.53;;;;;;;15.78;62.53;99958.91;5056471;27;20049;-49
2023/08/29 01:50:34;;;;;;;2.92;2.67;;;;;;;15.78;62.51;99958.91;5060312;28;20049;-47
2023/08/29 01:53:01;;;;;;;5.35;2.85;;;;;;;15.76;62.47;99955.47;5059249;28;20041;-46
2023/08/29 01:55:28;;;;;;;2.78;2.50;;;;;;;15.74;62.37;99957.28;5065263;28;20041;-48
2023/08/29 01:57:58;;;;;;;3.28;0.70;;;;;;;15.72;62.59;99964.28;5047708;28;20438;-47
2023/08/29 02:00:27;;;;;;;2.88;2.67;;;;;;;15.71;62.75;99953.00;5043846;28;20049;-54
2023/08/29 02:02:53;;;;;;;3.50;1.77;;;;;;;15.70;63.28;99958.25;5040047;28;20747;-47
2023/08/29 02:05:20;;;;;;;2.40;1.63;;;;;;;15.69;62.98;99954.78;5048545;28;20134;-45
2023/08/29 02:07:48;;;;;;;3.08;2.10;;;;;;;15.68;63.27;99950.44;5046902;28;20056;-45
2023/08/29 02:10:16;;;;;;;2.30;2.03;;;;;;;15.70;63.20;99955.63;5043747;28;20056;-45
2023/08/29 02:12:42;;;;;;;3.60;2.20;;;;;;;15.68;62.76;99956.50;5043335;28;20727;-49
2023/08/29 02:15:09;;;;;;;3.00;2.28;;;;;;;15.67;63.40;99957.41;5043585;28;20059;-49
2023/08/29 02:17:36;;;;;;;5.15;2.67;;;;;;;15.67;62.77;99957.41;5046402;28;20053;-46
2023/08/29 02:20:06;;;;;;;4.10;2.35;;;;;;;15.68;63.35;99953.91;5038378;28;20053;-50
2023/08/29 02:22:33;;;;;;;;;;;;;;;15.53;63.52;99954.28;5043681;28;20459;-50
2023/08/29 02:25:04;;;;;;;7.13;3.17;;;;;;;15.64;63.38;99957.50;5047773;28;19956;-48
2023/08/29 02:27:32;;;;;;;4.85;2.50;;;;;;;15.67;63.44;99957.41;5038932;28;20049;-48
2023/08/29 02:29:59;;;;;;;3.90;2.65;;;;;;;15.67;62.87;99962.63;5046194;28;20100;-45
2023/08/29 02:32:26;;;;;;;3.65;2.40;;;;;;;15.66;63.54;99950.50;5044627;28;20048;-46
2023/08/29 02:34:52;;;;;;;4.43;2.67;;;;;;;15.68;63.34;99953.06;5044107;28;20618;-50
2023/08/29 02:37:19;;;;;;;4.75;2.25;;;;;;;15.66;63.41;99940.03;5031067;28;20068;-44
2023/08/29 02:39:46;;;;;;;3.67;2.17;;;;;;;15.65;63.30;99938.34;5027906;28;20050;-49
2023/08/29 02:42:12;;;;;;;3.03;2.35;;;;;;;15.64;63.60;99935.75;5030259;28;20050;-49
2023/08/29 02:44:39;;;;;;;4.50;2.47;;;;;;;15.64;63.11;99940.97;5026523;28;20045;-48
2023/08/29 02:47:05;;;;;;;2.92;2.10;;;;;;;15.63;63.63;99934.91;5023340;28;20125;-47
2023/08/29 02:49:32;;;;;;;3.88;2.72;;;;;;;15.64;63.66;99938.38;5010848;28;20057;-53
2023/08/29 02:51:59;;;;;;;3.10;1.85;;;;;;;15.64;63.38;99936.59;5008120;28;20060;-49
2023/08/29 02:54:26;;;;;;;4.00;2.15;;;;;;;15.64;63.85;99935.75;5006286;28;20050;-47
2023/08/29 02:56:52;;;;;;;4.25;2.55;;;;;;;15.64;63.69;99930.53;5005359;28;20050;-50
2023/08/29 02:59:19;;;;;;;3.28;2.70;;;;;;;15.64;63.85;99930.53;5010687;28;20052;-47
2023/08/29 03:01:46;;;;;;;2.97;0.80;;;;;;;15.64;63.87;99931.38;5019706;28;20578;-48
2023/08/29 03:04:12;;;;;;;6.60;3.03;;;;;;;15.65;63.40;99938.34;5025654;28;20049;-48
2023/08/29 03:06:39;;;;;;;5.38;2.72;;;;;;;15.64;63.80;99926.16;5027520;28;20057;-50
2023/08/29 03:09:07;;;;;;;4.38;2.80;;;;;;;15.62;63.79;99927.97;5027157;28;20059;-48
2023/08/29 03:11:34;;;;;;;3.63;1.83;;;;;;;15.61;63.92;99920.19;5028454;28;20049;-46
2023/08/29 03:14:03;;;;;;;3.72;3.42;;;;;;;15.59;63.76;99928.03;5025454;28;20061;-48
2023/08/29 03:16:30;;;;;;;4.03;2.90;;;;;;;15.56;63.93;99917.66;5025349;28;20045;-49
2023/08/29 03:18:57;;;;;;;5.43;2.53;;;;;;;15.53;63.94;99917.75;5023008;28;20200;-47
2023/08/29 03:21:24;;;;;;;4.28;2.97;;;;;;;15.52;64.04;99911.69;5025591;28;20053;-45
2023/08/29 03:23:50;;;;;;;4.50;2.83;;;;;;;15.50;64.05;99910.00;5022623;28;20056;-46
2023/08/29 03:26:17;;;;;;;3.85;2.72;;;;;;;15.52;63.80;99910.81;5026228;28;20055;-45
2023/08/29 03:28:45;;;;;;;4.07;2.67;;;;;;;15.50;63.86;99912.63;5024326;28;20063;-50
2023/08/29 03:31:14;;;;;;;5.70;3.78;;;;;;;15.50;63.95;99912.63;5027528;28;20048;-44
2023/08/29 03:33:41;;;;;;;4.13;2.85;;;;;;;15.48;63.99;99909.19;5022082;28;20053;-45
2023/08/29 03:36:09;;;;;;;5.15;2.97;;;;;;;15.46;64.33;99908.34;5018882;28;20069;-48
2023/08/29 03:38:37;;;;;;;4.40;2.13;;;;;;;15.42;63.96;99903.22;5027366;28;20052;-48
2023/08/29 03:41:05;;;;;;;2.95;0.93;;;;;;;15.39;64.29;99900.69;5020831;28;20516;-49
2023/08/29 03:43:33;;;;;;;5.72;3.03;;;;;;;15.38;64.51;99909.44;5025549;28;20053;-45
2023/08/29 03:46:02;;;;;;;4.85;2.97;;;;;;;15.38;64.53;99912.03;5027021;28;20056;-47
2023/08/29 03:48:30;;;;;;;5.50;2.72;;;;;;;15.36;64.64;99911.19;5021382;28;20060;-49
2023/08/29 03:50:58;;;;;;;4.82;2.60;;;;;;;15.36;64.31;99913.81;5019450;28;20045;-50
2023/08/29 03:53:25;;;;;;;3.13;1.38;;;;;;;15.37;64.78;99904.25;5023850;28;20427;-48
2023/08/29 03:55:52;;;;;;;6.45;3.55;;;;;;;15.34;64.62;99897.34;5023656;28;20148;-47
2023/08/29 03:58:18;;;;;;;5.43;3.53;;;;;;;15.33;64.67;99900.84;5021715;28;20045;-47
2023/08/29 04:00:45;;;;;;;4.25;3.22;;;;;;;15.33;64.73;99889.56;5025607;28;20717;-48
2023/08/29 04:03:12;;;;;;;5.72;3.28;;;;;;;15.33;64.90;99885.19;5027119;28;20060;-49
2023/08/29 04:05:39;;;;;;;4.90;3.08;;;;;;;15.32;65.15;99883.47;5027380;28;20053;-47
2023/08/29 04:08:07;;;;;;;4.70;2.72;;;;;;;15.31;64.84;99876.56;5021000;28;20076;-49
2023/08/29 04:10:41;;;;;;;6.43;2.65;;;;;;;15.28;64.35;99877.50;5024695;28;20053;-47
2023/08/29 04:13:10;;;;;;;5.18;2.88;;;;;;;15.28;65.09;99872.28;5022130;28;20428;-44
2023/08/29 04:15:38;;;;;;;5.55;3.03;;;;;;;15.30;64.72;99869.59;5028279;28;20119;-50
2023/08/29 04:18:05;;;;;;;5.20;3.03;;;;;;;15.30;65.01;99869.59;5022738;28;20050;-50
2023/08/29 04:20:32;;;;;;;5.47;3.78;;;;;;;15.31;65.44;99876.56;5018620;28;20503;-46
2023/08/29 04:23:02;;;;;;;4.82;3.90;;;;;;;15.31;65.10;99860.03;5021458;28;20056;-50
2023/08/29 04:25:30;;;;;;;6.55;3.30;;;;;;;15.29;65.41;99862.66;5014170;28;20411;-51
2023/08/29 04:27:57;;;;;;;4.57;2.30;;;;;;;15.26;65.35;99852.31;5020632;28;20516;-49
2023/08/29 04:30:24;;;;;;;4.63;3.08;;;;;;;15.25;65.36;99850.59;5021912;28;20065;-51
2023/08/29 04:32:51;;;;;;;4.50;3.13;;;;;;;15.23;65.05;99857.63;5028020;28;20167;-45
2023/08/29 04:35:19;;;;;;;7.30;2.95;;;;;;;15.24;65.45;99859.34;5027711;28;20554;-50
2023/08/29 04:37:47;;;;;;;5.63;3.90;;;;;;;15.25;65.45;99861.03;5017615;28;20064;-49
2023/08/29 04:40:15;;;;;;;5.90;3.85;;;;;;;15.25;65.65;99850.59;5030330;28;20045;-48
2023/08/29 04:42:43;;;;;;;6.07;3.75;;;;;;;15.25;65.91;99845.38;5022475;28;20950;-47
2023/08/29 04:45:11;;;;;;;5.95;3.42;;;;;;;15.24;66.01;99854.13;5021377;28;20046;-46
2023/08/29 04:47:38;;;;;;;4.93;3.00;;;;;;;15.25;65.82;99848.00;5032235;28;20666;-47
2023/08/29 04:50:06;;;;;;;5.38;3.58;;;;;;;15.24;65.53;99854.97;5023960;28;20045;-48
2023/08/29 04:52:33;;;;;;;5.38;2.97;;;;;;;15.23;65.53;99855.84;5025603;28;20060;-49
2023/08/29 04:55:00;;;;;;;5.05;3.42;;;;;;;15.21;65.80;99851.56;5027886;28;20065;-48
2023/08/29 04:57:27;;;;;;;5.32;3.53;;;;;;;15.22;66.21;99866.31;5030401;28;20061;-45
2023/08/29 04:59:53;;;;;;;3.53;1.70;;;;;;;15.21;65.72;99859.41;5028060;28;20629;-46
2023/08/29 05:02:21;;;;;;;5.70;3.35;;;;;;;15.23;65.97;99852.41;5019530;28;20052;-50
2023/08/29 05:04:48;;;;;;;5.32;3.78;;;;;;;15.25;65.85;99850.59;5026650;28;20494;-49
2023/08/29 05:07:15;;;;;;;6.38;3.13;;;;;;;15.26;66.17;99852.31;5021790;28;20613;-49
2023/08/29 05:09:41;;;;;;;5.82;3.20;;;;;;;15.25;66.43;99856.69;5018634;28;20060;-48
2023/08/29 05:12:10;;;;;;;5.60;2.67;;;;;;;15.26;66.22;99852.31;5022626;28;20057;-48
2023/08/29 05:14:38;;;;;;;3.70;3.03;;;;;;;15.26;66.24;99862.75;5017665;28;20045;-47
2023/08/29 05:17:08;;;;;;;4.55;2.90;;;;;;;15.25;66.09;99850.59;5018346;28;20053;-48
2023/08/29 05:19:34;;;;;;;3.25;1.80;;;;;;;15.25;66.51;99866.25;5020877;28;20735;-47
2023/08/29 05:22:01;;;;;;;5.50;2.65;;;;;;;15.26;66.15;99874.06;5019588;28;20060;-46
2023/08/29 05:24:28;;;;;;;2.95;2.50;;;;;;;15.27;66.14;99864.47;5017705;28;20049;-47
2023/08/29 05:26:54;;;;;;;3.80;2.53;;;;;;;15.28;65.88;99861.84;5023009;28;20115;-45
2023/08/29 05:29:21;;;;;;;2.58;2.38;;;;;;;15.29;66.73;99870.50;5024440;28;20057;-48
2023/08/29 05:31:48;;;;;;;3.85;2.85;;;;;;;15.28;65.99;99871.41;5024457;28;20698;-46
2023/08/29 05:34:15;;;;;;;3.15;2.33;;;;;;;15.27;66.39;99874.91;5024066;28;20516;-48
2023/08/29 05:36:41;;;;;;;4.15;1.50;;;;;;;15.28;66.18;99871.41;5022391;28;20613;-44
2023/08/29 05:39:08;;;;;;;2.70;1.55;;;;;;;15.27;66.61;99869.69;5023406;28;20600;-51
2023/08/29 05:41:35;;;;;;;4.03;2.30;;;;;;;15.27;66.09;99870.53;5021060;28;20041;-46
2023/08/29 05:44:03;;;;;;;3.47;2.72;;;;;;;15.27;66.21;99874.91;5021841;28;20053;-52
2023/08/29 05:46:29;;;;;;;2.95;2.38;;;;;;;15.26;66.72;99873.19;5016816;28;20050;-45
2023/08/29 05:48:59;;;;;;;3.03;2.20;;;;;;;15.26;66.25;99888.84;5020059;28;20049;-47
2023/08/29 05:51:26;;;;;;;4.55;2.40;;;;;;;15.27;66.98;99895.78;5021332;28;20049;-51
2023/08/29 05:53:53;;;;;;;3.20;2.53;;;;;;;15.25;66.64;99884.53;5023856;28;20041;-47
2023/08/29 05:56:20;;;;;;;2.17;1.25;;;;;;;15.23;66.92;99878.50;5028064;28;20624;-48
2023/08/29 05:58:47;;;;;;;3.22;2.00;;;;;;;15.23;66.62;99878.50;5028035;28;20353;-48
2023/08/29 06:01:14;;;;;;;3.40;2.80;;;;;;;15.24;66.22;99875.00;5016568;28;20470;-47
2023/08/29 06:03:42;;;;;;;3.33;2.13;;;;;;;15.23;67.11;99868.06;5016741;28;21828;-49
2023/08/29 06:06:09;;;;;;;4.97;2.38;;;;;;;15.23;66.78;99863.69;5015144;28;20053;-46
2023/08/29 06:08:36;;;;;;;2.83;1.05;;;;;;;15.23;66.48;99861.06;5025363;28;20609;-48
2023/08/29 06:11:04;;;;;;;3.78;2.40;;;;;;;15.24;66.83;99875.00;5020849;28;20136;-51
2023/08/29 06:13:31;;;;;;;4.18;2.50;;;;;;;15.28;66.58;99871.41;5028606;28;20060;-47
2023/08/29 06:15:57;;;;;;;3.95;2.45;;;;;;;15.29;66.31;99867.88;5030167;28;20048;-47
2023/08/29 06:18:24;;;;;;;3.40;1.98;;;;;;;15.29;66.37;99857.47;5025440;28;20391;-49
2023/08/29 06:20:51;;;;;;;2.97;2.65;;;;;;;15.31;66.78;99862.63;5020135;28;20076;-49
2023/08/29 06:23:18;;;;;;;3.83;2.88;;;;;;;15.32;66.99;99862.59;5024781;28;20080;-49
2023/08/29 06:25:45;;;;;;;6.38;2.45;;;;;;;15.35;66.84;99862.53;5025671;28;20053;-47
2023/08/29 06:28:11;;;;;;;2.97;2.58;;;;;;;15.39;66.92;99864.16;5020878;28;20050;-45
2023/08/29 06:30:38;;;;;;;3.10;2.38;;;;;;;15.42;67.15;99869.31;5026271;28;20049;-48
2023/08/29 06:33:06;;;;;;;3.85;2.00;;;;;;;15.46;66.87;99874.44;5026980;28;20130;-47
2023/08/29 06:35:37;;;;;;;4.32;2.47;;;;;;;15.46;66.99;99863.97;5023334;28;20140;-47
2023/08/29 06:38:04;;;;;;;4.15;2.30;;;;;;;15.46;66.45;99864.84;5023172;28;20060;-45
2023/08/29 06:40:31;;;;;;;2.40;1.98;;;;;;;15.49;66.79;99863.91;5017223;28;20141;-50
2023/08/29 06:42:58;;;;;;;4.75;0.95;;;;;;;15.49;66.55;99858.69;5019214;28;20733;-44
2023/08/29 06:45:24;;;;;;;2.53;1.98;;;;;;;15.52;66.32;99869.06;5021896;28;20052;-49
2023/08/29 06:47:52;;;;;;;6.50;2.60;;;;;;;15.54;66.71;99868.13;5009851;28;20049;-44
2023/08/29 06:50:19;;;;;;;2.63;2.10;;;;;;;15.56;66.95;99865.47;5005976;28;20140;-49
2023/08/29 06:52:45;;;;;;;3.28;2.67;;;;;;;15.58;66.89;99871.53;5024979;28;20057;-50
2023/08/29 06:55:13;;;;;;;2.40;1.80;;;;;;;15.60;66.82;99872.31;5022964;28;20048;-45
2023/08/29 06:57:40;;;;;;;2.60;1.92;;;;;;;15.61;66.81;99868.84;5021175;28;20104;-49
2023/08/29 07:00:07;;;;;;;2.28;0.70;;;;;;;15.63;66.77;99877.47;5025459;28;20766;-46
2023/08/29 07:02:34;;;;;;;2.42;2.13;;;;;;;15.62;66.22;99875.75;5024046;28;20057;-44
2023/08/29 07:05:00;;;;;;;3.00;2.63;;;;;;;15.63;66.32;99876.59;5022072;28;20099;-51
2023/08/29 07:07:27;;;;;;;2.38;2.08;;;;;;;15.65;66.79;99873.06;5016541;28;20045;-48
2023/08/29 07:09:54;;;;;;;4.03;1.73;;;;;;;15.67;66.38;99870.41;5014916;28;20041;-49
2023/08/29 07:12:21;;;;;;;3.45;2.40;;;;;;;15.70;66.44;99878.16;5019103;28;20049;-50
2023/08/29 07:14:47;;;;;;;2.80;1.95;;;;;;;15.72;66.77;99854.63;5020049;28;20054;-50
2023/08/29 07:17:14;;;;;;;3.80;2.03;;;;;;;15.75;66.32;99854.53;5016740;28;20049;-48
2023/08/29 07:19:41;;;;;;;2.95;1.95;;;;;;;15.76;66.42;99851.00;5024369;28;20133;-47
2023/08/29 07:22:08;;;;;;;2.53;1.95;;;;;;;15.77;66.42;99853.59;5023917;28;20049;-46
2023/08/29 07:24:49;;;;;;;3.90;1.98;;;;;;;15.79;66.58;99848.31;5019759;28;20045;-49
2023/08/29 07:27:16;;;;;;;3.25;2.95;;;;;;;15.81;66.34;99849.16;5015638;28;20083;-46
2023/08/29 07:29:43;;;;;;;2.78;2.03;;;;;;;15.86;66.24;99856.84;5020861;28;20045;-49
2023/08/29 07:32:11;;;;;;;2.38;1.60;;;;;;;15.89;66.57;99857.63;5018517;28;20037;-47
2023/08/29 07:34:39;;;;;;;3.13;2.38;;;;;;;15.94;66.81;99855.72;5021807;28;20084;-47
2023/08/29 07:37:06;;;;;;;2.53;1.67;;;;;;;16.03;66.55;99856.41;5025574;28;20048;-46
2023/08/29 07:39:34;;;;;;;3.28;1.83;;;;;;;16.09;66.38;99845.78;5020158;28;20136;-46
2023/08/29 07:42:02;;;;;;;3.35;2.65;;;;;;;16.13;66.05;99847.41;5032207;28;20045;-47
2023/08/29 07:44:30;;;;;;;2.53;1.83;;;;;;;16.20;65.90;99845.47;5023936;28;20490;-47
2023/08/29 07:46:57;;;;;;;2.72;1.70;;;;;;;16.26;66.27;99844.44;5024738;28;20239;-48
2023/08/29 07:49:39;;;;;;;4.47;1.90;;;;;;;16.35;66.11;99841.53;5019117;28;20083;-48
2023/08/29 07:52:06;;;;;;;4.28;2.03;;;;;;;16.46;66.25;99856.91;5035691;28;20494;-47
2023/08/29 07:54:32;;;;;;;1.83;0.82;;;;;;;16.55;66.44;99850.53;5025263;28;20435;-48
2023/08/29 07:56:59;;;;;;;2.75;2.22;;;;;;;16.62;65.49;99845.97;5022656;28;20046;-47
2023/08/29 07:59:26;;;;;;;2.55;2.20;;;;;;;16.69;66.14;99848.34;5026858;28;20041;-47
2023/08/29 08:01:53;;;;;;;3.60;1.92;;;;;;;16.77;65.54;99839.41;5026041;28;20057;-46
2023/08/29 08:04:20;;;;;;;4.97;1.90;;;;;;;16.86;65.30;99839.13;5015659;28;20050;-50
2023/08/29 08:06:47;;;;;;;4.55;2.22;;;;;;;16.93;65.48;99837.97;5025371;28;20042;-46
2023/08/29 08:09:14;;;;;;;3.78;2.17;;;;;;;17.01;65.80;99837.75;5026279;28;20129;-48
2023/08/29 08:11:41;;;;;;;4.03;3.58;;;;;;;17.06;65.26;99840.25;5026315;28;20049;-49
2023/08/29 08:14:07;;;;;;;4.15;2.53;;;;;;;17.10;65.38;99839.25;5024960;28;20060;-51
2023/08/29 08:16:34;;;;;;;3.50;2.30;;;;;;;17.14;64.69;99838.22;5021711;28;20410;-47
2023/08/29 08:19:01;;;;;;;4.28;1.92;;;;;;;17.23;65.03;99830.97;5022909;28;20042;-49
2023/08/29 08:21:27;;;;;;;4.43;1.80;;;;;;;17.32;65.45;99826.28;5025081;28;20046;-45
2023/08/29 08:23:55;;;;;;;2.80;2.45;;;;;;;17.43;64.83;99818.03;5027708;28;20052;-47
2023/08/29 08:26:22;;;;;;;4.30;2.15;;;;;;;17.51;64.91;99815.16;5025181;28;20118;-47
2023/08/29 08:28:49;;;;;;;2.85;2.28;;;;;;;17.60;64.29;99809.59;5024365;28;20053;-50
2023/08/29 08:31:15;;;;;;;2.55;2.15;;;;;;;17.68;64.80;99806.72;5030322;28;20082;-50
2023/08/29 08:33:43;;;;;;;3.53;2.72;;;;;;;17.77;63.94;99799.44;5025560;28;20103;-44
2023/08/29 08:36:10;;;;;;;4.07;2.53;;;;;;;17.84;64.36;99806.97;5025301;28;20053;-47
2023/08/29 08:38:36;;;;;;;3.17;2.45;;;;;;;17.94;63.74;99802.25;5022617;28;20045;-46
2023/08/29 08:41:04;;;;;;;4.10;1.00;;;;;;;18.04;63.82;99807.16;5024528;28;21204;-50
2023/08/29 08:43:31;;;;;;;3.33;2.00;;;;;;;18.12;63.76;99799.91;5023921;28;20127;-48
2023/08/29 08:45:58;;;;;;;2.50;2.25;;;;;;;18.22;63.45;99806.50;5019172;28;20045;-47
2023/08/29 08:48:26;;;;;;;3.10;1.98;;;;;;;18.30;63.16;99807.97;5017925;28;20050;-51
2023/08/29 08:50:54;;;;;;;3.17;2.53;;;;;;;18.40;63.49;99793.56;5022224;28;20052;-46
2023/08/29 08:53:21;;;;;;;3.65;2.08;;;;;;;18.52;63.45;99794.88;5019282;28;20411;-47
2023/08/29 08:55:50;;;;;;;6.03;2.45;;;;;;;18.79;63.02;99796.41;5027265;28;20042;-50
2023/08/29 08:58:18;;;;;;;4.22;2.20;;;;;;;19.24;62.87;99792.81;5022132;28;20098;-46
2023/08/29 09:00:45;;;;;;;4.57;2.42;;;;;;;19.77;62.30;99790.53;5020189;28;20176;-48
2023/08/29 09:03:13;;;;;;;3.30;1.80;;;;;;;20.22;61.54;99787.63;5022663;28;20049;-47
2023/08/29 09:05:42;;;;;;;3.92;2.55;;;;;;;20.52;60.83;99787.09;5025487;28;20045;-46
2023/08/29 09:08:09;;;;;;;3.08;2.17;;;;;;;21.01;60.52;99785.59;5023417;28;20053;-46
2023/08/29 09:10:39;;;;;;;4.70;2.45;;;;;;;21.51;59.30;99788.31;5022794;28;20044;-48
2023/08/29 09:13:13;;;;;;;4.68;2.83;;;;;;;21.94;58.85;99781.69;5022835;28;20061;-50
2023/08/29 09:15:40;;;;;;;3.42;1.98;;;;;;;22.30;57.93;99791.16;5017604;28;20052;-47
2023/08/29 09:18:08;;;;;;;17.88;2.63;;;;;;;22.64;57.09;99788.41;5022842;28;20040;-49
2023/08/29 09:20:35;;;;;;;3.92;3.53;;;;;;;22.93;56.86;99785.03;5026035;28;20053;-48
2023/08/29 09:23:02;;;;;;;3.67;2.63;;;;;;;23.19;55.79;99787.88;5022110;28;20049;-46
2023/08/29 09:25:28;;;;;;;3.50;2.85;;;;;;;23.41;55.41;99786.63;5020978;28;20143;-52
2023/08/29 09:27:56;;;;;;;3.35;2.83;;;;;;;23.66;54.85;99782.47;5022592;28;20041;-52
2023/08/29 09:30:23;;;;;;;6.47;2.33;;;;;;;23.87;54.67;99773.19;5022161;28;20103;-55
2023/08/29 09:32:51;;;;;;;3.30;2.50;;;;;;;24.09;54.36;99771.84;5017035;28;20054;-53
2023/08/29 09:35:21;;;;;;;4.22;2.55;;;;;;;24.26;53.67;99768.09;5022098;28;20057;-48
2023/08/29 09:37:51;;;;;;;2.70;1.15;;;;;;;24.41;53.27;99759.28;5024569;28;20493;-52
2023/08/29 09:40:20;;;;;;;3.72;3.03;;;;;;;24.49;52.92;99757.00;5025056;28;20045;-48
2023/08/29 09:43:06;;;;;;;3.45;3.15;;;;;;;24.57;52.23;99757.31;5024955;28;20048;-49
2023/08/29 09:45:34;;;;;;;4.15;2.75;;;;;;;24.65;52.04;99752.38;5022773;28;20041;-50
2023/08/29 09:48:02;;;;;;;4.38;3.13;;;;;;;24.71;51.46;99750.25;5033571;28;20583;-46
2023/08/29 09:50:30;;;;;;;4.43;3.05;;;;;;;24.74;51.68;99747.41;5020310;28;20053;-51
2023/08/29 09:52:58;;;;;;;4.63;2.85;;;;;;;24.81;51.36;99746.03;5028721;28;20111;-51
2023/08/29 09:55:25;;;;;;;5.07;3.28;;;;;;;24.87;50.54;99750.09;5023146;28;20045;-50
2023/08/29 09:57:53;;;;;;;4.60;3.03;;;;;;;24.85;50.38;99739.59;5028233;28;20532;-48
2023/08/29 10:00:21;;;;;;;4.35;3.38;;;;;;;24.92;50.41;99733.91;5021374;28;20104;-50
2023/08/29 10:02:54;;;;;;;3.17;2.30;;;;;;;25.05;50.39;99733.91;5023114;28;20053;-51
2023/08/29 10:05:25;;;;;;;5.03;3.97;;;;;;;25.13;50.12;99732.41;5028272;28;20061;-52
2023/08/29 10:07:57;;;;;;;4.93;3.20;;;;;;;25.23;49.60;99724.66;5024795;28;20041;-49
2023/08/29 10:10:25;;;;;;;3.45;2.85;;;;;;;25.22;48.79;99722.13;5020389;28;20136;-47
2023/08/29 10:12:54;;;;;;;6.90;4.07;;;;;;;25.21;48.84;99726.59;5031214;28;20045;-49
2023/08/29 10:15:21;;;;;;;5.22;3.53;;;;;;;25.25;48.64;99721.91;5021913;28;20057;-50
2023/08/29 10:17:49;;;;;;;4.45;3.33;;;;;;;25.31;48.24;99721.50;5027371;28;20144;-52
2023/08/29 10:20:17;;;;;;;5.07;3.60;;;;;;;25.26;47.03;99720.97;5026275;28;20132;-49
2023/08/29 10:22:48;;;;;;;5.28;3.60;;;;;;;25.11;47.70;99725.53;5025883;28;20054;-56
2023/08/29 10:25:15;;;;;;;6.05;3.25;;;;;;;25.09;47.61;99722.97;5018986;28;20148;-48
2023/08/29 10:27:42;;;;;;;7.25;4.10;;;;;;;25.12;47.47;99722.78;5025643;28;20053;-52
2023/08/29 10:30:10;;;;;;;5.50;3.13;;;;;;;25.13;47.21;99713.88;5027838;28;20053;-48
2023/08/29 10:32:37;;;;;;;4.80;2.85;;;;;;;25.12;47.65;99717.47;5022129;28;20060;-51
2023/08/29 10:35:05;;;;;;;5.00;3.15;;;;;;;25.19;47.41;99717.06;5026649;28;20128;-47
2023/08/29 10:37:32;;;;;;;5.65;3.50;;;;;;;25.26;48.06;99715.69;5030110;28;20060;-45
2023/08/29 10:40:15;;;;;;;4.80;3.33;;;;;;;25.32;47.55;99707.28;5029557;28;20045;-49
2023/08/29 10:42:51;;;;;;;4.38;3.60;;;;;;;25.29;47.16;99704.84;5025673;28;20053;-48
2023/08/29 10:45:21;;;;;;;6.05;3.50;;;;;;;25.31;47.40;99700.28;5029754;28;20045;-47
2023/08/29 10:47:47;;;;;;;5.18;3.45;;;;;;;25.27;47.13;99704.13;5024989;28;20049;-51
2023/08/29 10:50:21;;;;;;;4.07;2.83;;;;;;;25.20;46.83;99702.84;5028232;28;20069;-47
2023/08/29 10:52:56;;;;;;;6.32;3.35;;;;;;;25.15;47.25;99701.38;5024316;28;20046;-52
2023/08/29 10:55:27;;;;;;;5.35;3.33;;;;;;;25.17;47.19;99698.63;5031188;28;20689;-49
2023/08/29 10:57:58;;;;;;;6.53;3.42;;;;;;;25.17;46.97;99695.97;5022063;28;20487;-51
2023/08/29 11:00:51;;;;;;;4.97;2.97;;;;;;;25.09;46.76;99693.00;5024336;28;20054;-47
2023/08/29 11:03:41;;;;;;;4.25;3.50;;;;;;;24.88;46.30;99694.38;5025987;28;20125;-52
2023/08/29 11:06:08;;;;;;;6.05;3.30;;;;;;;24.75;46.92;99689.03;5025724;28;20075;-52
2023/08/29 11:08:35;;;;;;;5.82;3.15;;;;;;;24.59;46.71;99686.56;5020069;28;20056;-48
2023/08/29 11:11:22;;;;;;;5.20;4.28;;;;;;;24.43;46.55;99683.28;5022977;28;20045;-49
2023/08/29 11:16:35;;;;;;;6.13;2.08;;;;;;;24.26;47.18;99674.66;5093770;27;20406;-50
2023/08/29 11:21:43;;;;;;;4.47;2.33;;;;;;;24.16;46.12;99674.44;4988578;28;20419;-49
2023/08/29 11:24:10;;;;;;;4.25;2.55;;;;;;;24.06;46.66;99674.16;4980077;28;20077;-52
2023/08/29 11:26:46;;;;;;;4.65;2.10;;;;;;;23.96;46.58;99671.28;4978882;28;20109;-52
2023/08/29 11:29:13;;;;;;;4.55;2.20;;;;;;;23.90;46.78;99676.09;4971888;28;20138;-52
2023/08/29 11:31:42;;;;;;;4.22;2.50;;;;;;;23.85;47.10;99684.34;4980756;28;20789;-52
2023/08/29 11:34:13;;;;;;;4.18;2.00;;;;;;;23.77;47.20;99676.06;4982649;28;20046;-49
2023/08/29 11:36:42;;;;;;;6.15;2.13;;;;;;;23.73;47.29;99673.59;4983470;28;20062;-49
2023/08/29 11:39:09;;;;;;;5.78;2.50;;;;;;;23.64;46.42;99673.34;4983067;28;20389;-46
2023/08/29 11:41:36;;;;;;;5.07;2.33;;;;;;;23.54;47.09;99671.25;4978965;28;20050;-47
2023/08/29 11:44:27;;;;;;;3.95;1.88;;;;;;;23.44;47.41;99665.72;4978623;28;20342;-55
2023/08/29 11:47:15;;;;;;;6.18;2.42;;;;;;;23.34;47.58;99668.06;4979200;28;20146;-51